createdAt,value
2022-10-17T00:00:33.256Z,16.00
2022-10-17T00:03:01.270Z,16.00
2022-10-17T00:05:29.178Z,16.00
2022-10-17T00:07:57.129Z,16.00
2022-10-17T00:10:26.441Z,16.00
2022-10-17T00:12:54.350Z,16.10
2022-10-17T00:15:22.683Z,16.00
2022-10-17T00:17:50.803Z,16.00
2022-10-17T00:20:19.100Z,16.00
2022-10-17T00:22:47.253Z,16.00
2022-10-17T00:25:15.110Z,16.00
2022-10-17T00:27:44.390Z,16.00
2022-10-17T00:30:15.923Z,16.00
2022-10-17T00:32:43.870Z,16.00
2022-10-17T00:35:12.097Z,16.00
2022-10-17T00:37:40.128Z,16.00
2022-10-17T00:40:09.345Z,16.10
2022-10-17T00:42:37.349Z,16.10
2022-10-17T00:45:16.123Z,16.10
2022-10-17T00:47:47.760Z,16.00
2022-10-17T00:50:16.480Z,16.10
2022-10-17T00:52:45.421Z,16.10
2022-10-17T00:55:17.329Z,16.00
2022-10-17T00:57:46.849Z,16.00
2022-10-17T01:00:17.674Z,16.00
2022-10-17T01:02:46.077Z,16.00
2022-10-17T01:05:15.137Z,16.00
2022-10-17T01:07:44.949Z,16.00
2022-10-17T01:10:14.482Z,16.00
2022-10-17T01:12:52.405Z,16.00
2022-10-17T01:15:29.262Z,16.00
2022-10-17T01:18:09.934Z,16.00
2022-10-17T01:21:07.705Z,15.90
2022-10-17T01:23:58.575Z,15.90
2022-10-17T01:26:36.530Z,15.80
2022-10-17T01:29:34.419Z,15.80
2022-10-17T01:32:08.328Z,15.80
2022-10-17T01:34:42.865Z,15.80
2022-10-17T01:37:20.037Z,15.80
2022-10-17T01:39:53.222Z,15.80
2022-10-17T01:42:27.005Z,15.70
2022-10-17T01:44:58.699Z,15.80
2022-10-17T01:47:30.564Z,15.80
2022-10-17T01:50:05.284Z,15.70
2022-10-17T01:52:38.942Z,15.70
2022-10-17T01:55:12.654Z,15.70
2022-10-17T01:57:44.825Z,15.70
2022-10-17T02:00:18.777Z,15.80
2022-10-17T02:02:59.487Z,15.80
2022-10-17T02:05:32.164Z,15.90
2022-10-17T02:08:00.160Z,15.80
2022-10-17T02:10:40.433Z,15.80
2022-10-17T02:13:19.663Z,15.80
2022-10-17T02:16:00.335Z,15.80
2022-10-17T02:18:54.179Z,15.80
2022-10-17T02:21:29.209Z,15.80
2022-10-17T02:24:04.008Z,15.70
2022-10-17T02:26:37.392Z,15.70
2022-10-17T02:29:09.705Z,15.70
2022-10-17T02:31:41.012Z,15.70
2022-10-17T02:34:14.330Z,15.60
2022-10-17T02:36:46.941Z,15.70
2022-10-17T02:39:16.624Z,15.60
2022-10-17T02:41:45.857Z,15.60
2022-10-17T02:44:13.759Z,15.60
2022-10-17T02:46:43.549Z,15.60
2022-10-17T02:49:19.588Z,15.50
2022-10-17T02:51:53.274Z,15.50
2022-10-17T02:54:29.188Z,15.50
2022-10-17T02:57:01.987Z,15.50
2022-10-17T02:59:31.934Z,15.50
2022-10-17T03:02:03.427Z,15.60
2022-10-17T03:04:33.972Z,15.50
2022-10-17T03:07:01.914Z,15.60
2022-10-17T03:09:30.481Z,15.60
2022-10-17T03:11:58.465Z,15.60
2022-10-17T03:14:26.496Z,15.50
2022-10-17T03:16:54.342Z,15.50
2022-10-17T03:19:23.056Z,15.50
2022-10-17T03:21:53.306Z,15.60
2022-10-17T03:24:21.198Z,15.60
2022-10-17T03:26:49.216Z,15.50
2022-10-17T03:29:17.118Z,15.60
2022-10-17T03:31:45.087Z,15.60
2022-10-17T03:34:16.727Z,15.50
2022-10-17T03:36:44.680Z,15.50
2022-10-17T03:39:14.289Z,15.50
2022-10-17T03:41:43.333Z,15.40
2022-10-17T03:44:11.550Z,15.40
2022-10-17T03:46:39.492Z,15.40
2022-10-17T03:49:07.768Z,15.40
2022-10-17T03:51:36.940Z,15.30
2022-10-17T03:54:10.286Z,15.30
2022-10-17T03:56:39.808Z,15.30
2022-10-17T03:59:14.282Z,15.20
2022-10-17T04:01:44.568Z,15.30
2022-10-17T04:04:13.859Z,15.30
2022-10-17T04:06:41.889Z,15.20
2022-10-17T04:09:12.034Z,15.20
2022-10-17T04:11:55.614Z,15.20
2022-10-17T04:14:24.484Z,15.20
2022-10-17T04:16:53.475Z,15.20
2022-10-17T04:19:22.420Z,15.10
2022-10-17T04:21:51.191Z,15.10
2022-10-17T04:24:20.662Z,15.10
2022-10-17T04:27:07.859Z,15.10
2022-10-17T04:29:39.266Z,15.10
2022-10-17T04:32:20.522Z,15.10
2022-10-17T04:34:51.929Z,15.10
2022-10-17T04:37:22.793Z,15.10
2022-10-17T04:39:52.637Z,15.00
2022-10-17T04:42:22.517Z,15.10
2022-10-17T04:44:53.022Z,15.00
2022-10-17T04:47:20.901Z,15.00
2022-10-17T04:49:48.815Z,15.00
2022-10-17T04:52:17.474Z,15.00
2022-10-17T04:54:46.981Z,15.00
2022-10-17T04:57:15.408Z,15.00
2022-10-17T04:59:51.832Z,15.00
2022-10-17T05:02:26.430Z,15.00
2022-10-17T05:04:54.452Z,15.00
2022-10-17T05:07:23.465Z,14.90
2022-10-17T05:10:05.361Z,14.90
2022-10-17T05:12:34.310Z,14.90
2022-10-17T05:15:03.541Z,14.80
2022-10-17T05:17:31.881Z,14.80
2022-10-17T05:20:00.772Z,14.80
2022-10-17T05:22:30.661Z,14.80
2022-10-17T05:24:59.047Z,14.80
2022-10-17T05:27:27.050Z,14.90
2022-10-17T05:29:54.970Z,14.80
2022-10-17T05:32:30.362Z,14.90
2022-10-17T05:34:58.691Z,14.80
2022-10-17T05:37:27.367Z,14.90
2022-10-17T05:39:57.409Z,14.80
2022-10-17T05:42:26.570Z,14.80
2022-10-17T05:44:54.663Z,14.80
2022-10-17T05:47:22.771Z,14.80
2022-10-17T05:49:52.612Z,14.80
2022-10-17T05:52:27.169Z,14.80
2022-10-17T05:55:11.125Z,14.80
2022-10-17T05:57:39.606Z,14.80
2022-10-17T06:00:12.741Z,14.80
2022-10-17T06:02:45.928Z,14.80
2022-10-17T06:05:17.401Z,14.80
2022-10-17T06:07:45.570Z,14.80
2022-10-17T06:10:16.477Z,14.80
2022-10-17T06:12:45.011Z,14.90
2022-10-17T06:15:13.419Z,15.00
2022-10-17T06:17:44.430Z,15.00
2022-10-17T06:20:12.395Z,15.00
2022-10-17T06:22:41.605Z,15.10
2022-10-17T06:25:15.196Z,15.20
2022-10-17T06:27:43.265Z,15.30
2022-10-17T06:30:12.579Z,15.40
2022-10-17T06:32:40.509Z,15.40
2022-10-17T06:35:09.153Z,15.50
2022-10-17T06:37:38.037Z,15.50
2022-10-17T06:40:12.394Z,15.60
2022-10-17T06:42:41.112Z,15.70
2022-10-17T06:45:29.224Z,15.70
2022-10-17T06:48:15.258Z,15.80
2022-10-17T06:50:44.866Z,15.80
2022-10-17T06:53:17.145Z,15.90
2022-10-17T06:55:55.340Z,15.90
2022-10-17T06:58:40.868Z,15.90
2022-10-17T07:01:15.706Z,16.00
2022-10-17T07:03:49.420Z,16.10
2022-10-17T07:06:17.976Z,16.20
2022-10-17T07:08:48.376Z,16.30
2022-10-17T07:11:21.634Z,16.40
2022-10-17T07:13:52.066Z,16.40
2022-10-17T07:16:21.314Z,16.60
2022-10-17T07:18:54.283Z,16.60
2022-10-17T07:21:22.587Z,16.70
2022-10-17T07:23:50.402Z,16.70
2022-10-17T07:26:20.863Z,16.80
2022-10-17T07:28:54.171Z,16.80
2022-10-17T07:31:31.778Z,16.90
2022-10-17T07:34:01.096Z,16.90
2022-10-17T07:36:29.592Z,16.90
2022-10-17T07:38:59.163Z,16.90
2022-10-17T07:41:29.084Z,16.90
2022-10-17T07:43:57.318Z,17.00
2022-10-17T07:46:31.810Z,17.00
2022-10-17T07:48:59.773Z,17.00
2022-10-17T07:51:27.982Z,17.00
2022-10-17T07:53:55.845Z,17.10
2022-10-17T07:56:24.757Z,17.20
2022-10-17T07:58:54.409Z,17.20
2022-10-17T08:01:22.450Z,17.20
2022-10-17T08:03:50.261Z,17.20
2022-10-17T08:06:18.609Z,17.20
2022-10-17T08:08:46.454Z,17.30
2022-10-17T08:11:15.703Z,17.40
2022-10-17T08:13:43.662Z,17.40
2022-10-17T08:16:14.169Z,17.50
2022-10-17T08:18:43.463Z,17.60
2022-10-17T08:21:13.187Z,17.60
2022-10-17T08:23:41.570Z,17.70
2022-10-17T08:26:10.922Z,17.80
2022-10-17T08:28:40.526Z,17.80
2022-10-17T08:31:11.368Z,17.90
2022-10-17T08:33:41.301Z,17.90
2022-10-17T08:36:09.983Z,18.00
2022-10-17T08:38:43.196Z,18.10
2022-10-17T08:41:30.042Z,18.20
2022-10-17T08:44:06.514Z,18.20
2022-10-17T08:46:39.099Z,18.30
2022-10-17T08:49:15.166Z,18.40
2022-10-17T08:51:50.247Z,18.50
2022-10-17T08:54:21.843Z,18.50
2022-10-17T08:56:52.073Z,18.60
2022-10-17T08:59:23.878Z,18.60
2022-10-17T09:01:57.069Z,18.70
2022-10-17T09:04:45.429Z,18.70
2022-10-17T09:07:19.324Z,18.80
2022-10-17T09:09:56.374Z,18.90
2022-10-17T09:12:30.033Z,19.00
2022-10-17T09:15:24.837Z,19.10
2022-10-17T09:17:57.139Z,19.20
2022-10-17T09:20:28.872Z,19.30
2022-10-17T09:23:00.722Z,19.40
2022-10-17T09:25:29.160Z,19.50
2022-10-17T09:28:07.342Z,19.50
2022-10-17T09:30:46.158Z,19.70
2022-10-17T09:33:28.311Z,19.80
2022-10-17T09:36:09.034Z,19.80
2022-10-17T09:38:41.311Z,20.00
2022-10-17T09:41:42.744Z,20.10
2022-10-17T09:44:17.847Z,20.10
2022-10-17T09:47:00.931Z,20.20
2022-10-17T09:49:33.467Z,20.30
2022-10-17T09:52:04.276Z,20.40
2022-10-17T09:54:42.510Z,20.50
2022-10-17T09:57:12.687Z,20.50
2022-10-17T09:59:42.327Z,20.60
2022-10-17T10:02:19.346Z,20.70
2022-10-17T10:05:10.568Z,20.80
2022-10-17T10:07:40.705Z,20.90
2022-10-17T10:10:24.355Z,21.00
2022-10-17T10:13:05.914Z,21.00
2022-10-17T10:15:37.506Z,21.10
2022-10-17T10:18:33.386Z,21.20
2022-10-17T10:21:08.340Z,21.30
2022-10-17T10:23:40.452Z,21.30
2022-10-17T10:26:21.518Z,21.40
2022-10-17T10:29:02.045Z,21.50
2022-10-17T10:31:33.273Z,21.50
2022-10-17T10:34:03.957Z,21.50
2022-10-17T10:36:54.517Z,21.60
2022-10-17T10:39:38.601Z,21.70
2022-10-17T10:42:09.739Z,21.80
2022-10-17T10:44:40.662Z,21.80
2022-10-17T10:47:15.470Z,21.80
2022-10-17T10:49:44.049Z,21.80
2022-10-17T10:52:19.278Z,21.80
2022-10-17T10:54:57.174Z,21.90
2022-10-17T10:57:30.342Z,21.90
2022-10-17T11:00:03.149Z,21.90
2022-10-17T11:02:37.710Z,22.00
2022-10-17T11:05:12.799Z,22.10
2022-10-17T11:07:44.810Z,22.20
2022-10-17T11:10:20.391Z,22.40
2022-10-17T11:12:53.500Z,22.50
2022-10-17T11:15:27.462Z,22.60
2022-10-17T11:18:00.588Z,22.70
2022-10-17T11:20:35.116Z,22.80
2022-10-17T11:23:19.693Z,23.00
2022-10-17T11:25:51.856Z,23.20
2022-10-17T11:28:22.395Z,23.70
2022-10-17T11:30:57.063Z,24.10
2022-10-17T11:33:30.253Z,24.30
2022-10-17T11:36:04.581Z,24.50
2022-10-17T11:38:44.457Z,24.80
2022-10-17T11:41:20.088Z,24.80
2022-10-17T11:43:54.339Z,25.00
2022-10-17T11:46:29.630Z,25.10
2022-10-17T11:49:07.814Z,25.30
2022-10-17T11:52:02.840Z,25.50
2022-10-17T11:54:36.095Z,25.70
2022-10-17T11:57:19.844Z,25.70
2022-10-17T11:59:59.493Z,25.60
2022-10-17T12:02:38.133Z,25.50
2022-10-17T12:05:18.071Z,25.70
2022-10-17T12:07:50.819Z,25.80
2022-10-17T12:10:30.242Z,26.10
2022-10-17T12:13:37.987Z,26.30
2022-10-17T12:16:39.980Z,26.50
2022-10-17T12:19:26.516Z,26.60
2022-10-17T12:22:04.332Z,26.80
2022-10-17T12:24:42.377Z,26.90
2022-10-17T12:27:34.257Z,26.60
2022-10-17T12:30:06.372Z,26.60
2022-10-17T12:33:00.396Z,26.80
2022-10-17T12:35:24.391Z,26.90
2022-10-17T12:38:16.867Z,27.00
2022-10-17T12:41:06.408Z,26.90
2022-10-17T12:46:49.088Z,26.80
2022-10-17T12:49:39.703Z,26.80
2022-10-17T12:52:47.234Z,26.80
2022-10-17T12:55:17.970Z,27.10
2022-10-17T12:57:52.393Z,27.00
2022-10-17T13:00:32.609Z,27.10
2022-10-17T13:03:07.803Z,27.20
2022-10-17T13:05:37.421Z,27.20
2022-10-17T13:08:08.972Z,27.40
2022-10-17T13:10:41.801Z,27.60
2022-10-17T13:13:17.485Z,27.60
2022-10-17T13:15:49.475Z,27.80
2022-10-17T13:18:24.475Z,27.90
2022-10-17T13:21:01.217Z,28.00
2022-10-17T13:23:33.164Z,27.80
2022-10-17T13:26:14.947Z,28.00
2022-10-17T13:28:43.454Z,27.80
2022-10-17T13:31:30.457Z,27.50
2022-10-17T13:34:01.697Z,27.50
2022-10-17T13:36:31.365Z,27.30
2022-10-17T13:39:00.531Z,27.30
2022-10-17T13:41:35.966Z,27.00
2022-10-17T13:44:12.595Z,27.10
2022-10-17T13:46:41.194Z,26.90
2022-10-17T13:49:20.690Z,26.90
2022-10-17T13:51:52.217Z,26.80
2022-10-17T13:54:32.510Z,26.70
2022-10-17T13:57:01.402Z,26.50
2022-10-17T13:59:34.933Z,26.20
2022-10-17T14:02:03.289Z,26.00
2022-10-17T14:04:50.254Z,25.90
2022-10-17T14:07:29.298Z,25.70
2022-10-17T14:09:59.420Z,25.50
2022-10-17T14:12:27.471Z,25.50
2022-10-17T14:15:10.112Z,25.40
2022-10-17T14:17:39.086Z,25.20
2022-10-17T14:20:48.263Z,25.00
2022-10-17T14:23:21.311Z,25.00
2022-10-17T14:25:47.435Z,25.00
2022-10-17T14:28:18.351Z,24.80
2022-10-17T14:30:56.634Z,24.70
2022-10-17T14:33:28.416Z,24.50
2022-10-17T14:36:00.256Z,24.60
2022-10-17T14:38:29.935Z,24.50
2022-10-17T14:41:29.644Z,24.50
2022-10-17T14:43:54.415Z,24.40
2022-10-17T14:46:22.594Z,24.30
2022-10-17T14:48:54.920Z,24.30
2022-10-17T14:51:24.245Z,24.30
2022-10-17T14:54:05.614Z,24.20
2022-10-17T14:56:40.777Z,24.10
2022-10-17T14:59:13.729Z,24.00
2022-10-17T15:01:43.602Z,24.00
2022-10-17T15:04:11.641Z,23.90
2022-10-17T15:06:41.365Z,23.90
2022-10-17T15:09:10.882Z,23.80
2022-10-17T15:11:39.131Z,23.70
2022-10-17T15:14:06.997Z,23.60
2022-10-17T15:16:37.057Z,23.60
